Great Marton, United Kingdom
Current Conditions -  °F | °C
As of 4:50 PM on Thursday 27 Nov 2014 (Local Time) from EGNO Reporting Station
Scattered Clouds Scattered Clouds  
Wind Chill: 42°   Ceiling: Unl
Heat Index: 45°   Visibility: 4mi
Dew Point: 43°   Wind: 5mph
Humidity: 93%   Direction: 130°SE
Pressure: 29.56"   Gusts: NA
Location:  53.81°N, 3.02°W
Report Text: EGNO 271650Z 13004KT 6000 FEW015 SCT032 07/06 Q1001
Loading
Personal Weather Stations






























Interactive Weather Map New forecast layout! Learn more

10-Day Weather Forecast

Advertisements
Track Severe Weather on mobile